createdAt,value
2018-12-13T00:01:34.010Z,6.70
2018-12-13T00:04:37.326Z,6.80
2018-12-13T00:07:40.554Z,6.17
2018-12-13T00:10:43.815Z,6.63
2018-12-13T00:13:47.071Z,6.40
2018-12-13T00:16:50.410Z,6.70
2018-12-13T00:19:53.710Z,6.47
2018-12-13T00:22:56.919Z,7.33
2018-12-13T00:26:00.186Z,8.00
2018-12-13T00:29:03.392Z,7.97
2018-12-13T00:32:06.692Z,8.20
2018-12-13T00:35:09.957Z,7.87
2018-12-13T00:38:13.291Z,7.77
2018-12-13T00:41:16.527Z,6.43
2018-12-13T00:44:19.776Z,7.23
2018-12-13T00:47:22.996Z,7.67
2018-12-13T00:50:26.273Z,7.20
2018-12-13T00:53:29.500Z,7.43
2018-12-13T00:56:32.821Z,7.43
2018-12-13T00:59:36.060Z,7.03
2018-12-13T01:02:39.359Z,7.47
2018-12-13T01:05:42.555Z,7.03
2018-12-13T01:08:45.848Z,6.57
2018-12-13T01:11:49.260Z,7.10
2018-12-13T01:14:52.452Z,6.80
2018-12-13T01:17:55.668Z,6.40
2018-12-13T01:20:58.897Z,5.57
2018-12-13T01:24:02.134Z,6.80
2018-12-13T01:27:05.395Z,6.73
2018-12-13T01:30:08.681Z,6.00
2018-12-13T01:33:11.889Z,6.60
2018-12-13T01:36:15.317Z,6.63
2018-12-13T01:39:18.512Z,6.73
2018-12-13T01:42:21.810Z,7.30
2018-12-13T01:45:25.005Z,7.10
2018-12-13T01:48:28.301Z,7.23
2018-12-13T01:51:31.527Z,7.33
2018-12-13T01:54:34.792Z,7.37
2018-12-13T01:57:38.028Z,6.70
2018-12-13T02:00:41.283Z,7.33
2018-12-13T02:03:44.484Z,7.13
2018-12-13T02:06:47.879Z,7.33
2018-12-13T02:09:51.278Z,7.00
2018-12-13T02:12:54.481Z,6.80
2018-12-13T02:15:57.770Z,6.80
2018-12-13T02:19:00.974Z,6.87
2018-12-13T02:22:04.365Z,6.30
2018-12-13T02:25:07.622Z,7.17
2018-12-13T02:28:10.960Z,6.03
2018-12-13T02:31:14.250Z,6.47
2018-12-13T02:34:17.469Z,7.50
2018-12-13T02:37:20.730Z,7.87
2018-12-13T02:40:23.974Z,6.80
2018-12-13T02:43:27.237Z,7.17
2018-12-13T02:46:30.442Z,6.47
2018-12-13T02:49:33.673Z,7.20
2018-12-13T02:52:37.009Z,6.83
2018-12-13T02:55:40.325Z,7.00
2018-12-13T02:58:43.622Z,7.03
2018-12-13T03:01:46.921Z,6.70
2018-12-13T03:04:50.121Z,7.63
2018-12-13T03:07:53.374Z,6.50
2018-12-13T03:10:56.689Z,7.27
2018-12-13T03:14:00.057Z,7.10
2018-12-13T03:17:03.608Z,8.10
2018-12-13T03:20:06.912Z,7.90
2018-12-13T03:23:10.309Z,7.20
2018-12-13T03:26:13.553Z,7.77
2018-12-13T03:29:16.798Z,7.43
2018-12-13T03:32:20.009Z,7.77
2018-12-13T03:35:23.362Z,7.73
2018-12-13T03:38:26.605Z,8.33
2018-12-13T03:41:29.965Z,8.47
2018-12-13T03:44:33.192Z,8.60
2018-12-13T03:47:36.439Z,8.67
2018-12-13T03:50:39.658Z,8.63
2018-12-13T03:53:42.950Z,8.63
2018-12-13T03:56:46.180Z,8.67
2018-12-13T03:59:49.463Z,8.43
2018-12-13T04:02:52.863Z,8.90
2018-12-13T04:05:56.772Z,9.03
2018-12-13T04:08:59.998Z,9.00
2018-12-13T04:12:03.264Z,8.67
2018-12-13T04:15:06.559Z,8.97
2018-12-13T04:18:10.024Z,9.97
2018-12-13T04:21:13.361Z,8.87
2018-12-13T04:24:16.590Z,9.07
2018-12-13T04:27:19.853Z,9.57
2018-12-13T04:30:23.067Z,9.23
2018-12-13T04:33:26.344Z,9.37
2018-12-13T04:36:29.548Z,9.20
2018-12-13T04:39:32.780Z,9.27
2018-12-13T04:42:36.004Z,8.87
2018-12-13T04:45:39.255Z,9.20
2018-12-13T04:48:42.568Z,9.53
2018-12-13T04:51:45.822Z,9.53
2018-12-13T04:54:49.027Z,9.20
2018-12-13T04:57:52.358Z,10.10
2018-12-13T05:00:55.585Z,10.20
2018-12-13T05:03:58.849Z,10.00
2018-12-13T05:07:02.066Z,10.17
2018-12-13T05:10:05.912Z,9.07
2018-12-13T05:13:09.149Z,9.30
2018-12-13T05:16:12.378Z,10.37
2018-12-13T05:19:15.604Z,9.40
2018-12-13T05:22:18.895Z,9.33
2018-12-13T05:25:22.096Z,9.67
2018-12-13T05:28:25.375Z,10.33
2018-12-13T05:31:28.584Z,9.50
2018-12-13T05:34:31.877Z,10.17
2018-12-13T05:37:35.089Z,9.77
2018-12-13T05:40:38.373Z,10.43
2018-12-13T05:43:41.580Z,9.83
2018-12-13T05:46:44.811Z,10.47
2018-12-13T05:49:48.193Z,11.07
2018-12-13T05:52:51.456Z,10.83
2018-12-13T05:55:54.665Z,11.23
2018-12-13T05:58:57.892Z,10.53
2018-12-13T06:02:01.140Z,10.17
2018-12-13T06:05:05.849Z,10.70
2018-12-13T06:08:09.075Z,9.97
2018-12-13T06:11:12.365Z,10.63
2018-12-13T06:14:15.606Z,12.40
2018-12-13T06:17:19.636Z,11.60
2018-12-13T06:20:22.983Z,11.50
2018-12-13T06:23:26.188Z,11.37
2018-12-13T06:26:29.468Z,11.50
2018-12-13T06:29:32.709Z,10.63
2018-12-13T06:32:36.021Z,12.10
2018-12-13T06:35:39.233Z,11.63
2018-12-13T06:38:42.552Z,11.70
2018-12-13T06:41:45.753Z,11.73
2018-12-13T06:44:49.044Z,11.53
2018-12-13T06:47:52.248Z,12.07
2018-12-13T06:50:55.597Z,10.77
2018-12-13T06:53:58.935Z,12.20
2018-12-13T06:57:02.181Z,11.37
2018-12-13T07:00:08.323Z,12.33
2018-12-13T07:03:11.565Z,11.73
2018-12-13T07:06:14.896Z,13.17
2018-12-13T07:09:18.130Z,10.70
2018-12-13T07:12:21.369Z,11.10
2018-12-13T07:15:24.621Z,10.80
2018-12-13T07:18:27.956Z,11.70
2018-12-13T07:21:31.208Z,11.30
2018-12-13T07:24:34.466Z,11.50
2018-12-13T07:27:37.763Z,11.23
2018-12-13T07:30:41.059Z,11.53
2018-12-13T07:33:44.293Z,10.80
2018-12-13T07:36:47.565Z,11.70
2018-12-13T07:39:50.853Z,12.03
2018-12-13T07:42:54.120Z,11.70
2018-12-13T07:45:57.328Z,11.33
2018-12-13T07:49:00.638Z,11.57
2018-12-13T07:52:03.872Z,11.20
2018-12-13T07:55:07.232Z,11.43
2018-12-13T07:58:10.445Z,11.47
2018-12-13T08:01:13.724Z,12.03
2018-12-13T08:04:16.954Z,10.87
2018-12-13T08:07:20.220Z,11.60
2018-12-13T08:10:23.615Z,11.07
2018-12-13T08:13:26.915Z,10.90
2018-12-13T08:16:30.209Z,12.20
2018-12-13T08:19:33.432Z,11.40
2018-12-13T08:22:36.702Z,11.90
2018-12-13T08:25:39.922Z,12.27
2018-12-13T08:28:43.194Z,12.17
2018-12-13T08:31:46.491Z,12.40
2018-12-13T08:34:49.789Z,12.17
2018-12-13T08:37:52.992Z,12.33
2018-12-13T08:40:56.280Z,11.73
2018-12-13T08:43:59.486Z,12.00
2018-12-13T08:47:02.740Z,12.20
2018-12-13T08:50:06.137Z,12.20
2018-12-13T08:53:09.399Z,11.63
2018-12-13T08:56:12.740Z,11.63
2018-12-13T08:59:15.973Z,12.00
2018-12-13T09:02:19.223Z,12.10
2018-12-13T09:05:22.761Z,11.97
2018-12-13T09:08:26.010Z,11.63
2018-12-13T09:11:29.457Z,13.47
2018-12-13T09:14:32.856Z,12.53
2018-12-13T09:17:36.069Z,12.90
2018-12-13T09:20:39.299Z,12.50
2018-12-13T09:23:43.053Z,12.43
2018-12-13T09:26:46.340Z,12.60
2018-12-13T09:29:49.649Z,13.20
2018-12-13T09:32:52.946Z,13.33
2018-12-13T09:35:56.244Z,12.80
2018-12-13T09:38:59.449Z,12.93
2018-12-13T09:42:02.736Z,13.90
2018-12-13T09:45:07.536Z,12.67
2018-12-13T09:51:22.889Z,12.87
2018-12-13T09:54:26.146Z,11.97
2018-12-13T09:57:34.059Z,13.87
2018-12-13T10:00:37.308Z,12.50
2018-12-13T10:03:40.531Z,13.77
2018-12-13T10:06:43.836Z,13.00
2018-12-13T10:09:47.164Z,13.20
2018-12-13T10:12:50.428Z,13.83
2018-12-13T10:15:53.680Z,15.17
2018-12-13T10:18:56.912Z,13.17
2018-12-13T10:22:00.147Z,14.50
2018-12-13T10:25:03.437Z,14.03
2018-12-13T10:28:06.661Z,14.37
2018-12-13T10:31:09.917Z,14.00
2018-12-13T10:34:13.137Z,15.17
2018-12-13T10:37:16.378Z,14.10
2018-12-13T10:40:19.819Z,14.33
2018-12-13T10:43:23.077Z,16.17
2018-12-13T10:46:26.310Z,14.37
2018-12-13T10:49:29.568Z,15.00
2018-12-13T10:52:32.882Z,15.20
2018-12-13T10:55:36.100Z,15.60
2018-12-13T10:58:39.362Z,14.80
2018-12-13T11:05:03.584Z,14.70
2018-12-13T11:08:06.876Z,14.07
2018-12-13T11:11:10.100Z,14.97
2018-12-13T11:14:13.326Z,14.93
2018-12-13T11:17:16.615Z,15.27
2018-12-13T11:20:19.872Z,16.73
2018-12-13T11:23:23.101Z,15.40
2018-12-13T11:26:26.385Z,16.53
2018-12-13T11:33:24.753Z,15.33
2018-12-13T11:36:28.040Z,15.53
2018-12-13T11:39:31.260Z,15.20
2018-12-13T11:42:34.493Z,16.27
2018-12-13T11:45:37.761Z,15.60
2018-12-13T11:48:41.072Z,15.27
2018-12-13T11:51:44.463Z,15.53
2018-12-13T11:54:47.957Z,16.83
2018-12-13T11:57:51.262Z,15.50
2018-12-13T12:00:54.468Z,15.83
2018-12-13T12:03:57.754Z,15.60
2018-12-13T12:07:00.988Z,16.43
2018-12-13T12:10:04.660Z,15.80
2018-12-13T12:13:07.925Z,16.13
2018-12-13T12:16:11.128Z,15.93
2018-12-13T12:19:14.446Z,15.97
2018-12-13T12:22:17.796Z,16.43
2018-12-13T12:25:21.041Z,17.33
2018-12-13T12:28:24.337Z,15.83
2018-12-13T12:31:27.722Z,15.87
2018-12-13T12:34:30.949Z,16.87
2018-12-13T12:37:34.213Z,16.43
2018-12-13T12:40:37.435Z,16.57
2018-12-13T12:43:40.663Z,17.40
2018-12-13T12:46:43.918Z,17.67
2018-12-13T12:49:47.261Z,17.60
2018-12-13T12:52:50.493Z,16.47
2018-12-13T12:55:53.813Z,16.50
2018-12-13T12:58:57.029Z,17.03
2018-12-13T13:02:00.392Z,17.03
2018-12-13T13:05:04.660Z,17.07
2018-12-13T13:08:07.921Z,16.97
2018-12-13T13:11:11.144Z,17.90
2018-12-13T13:14:14.376Z,18.20
2018-12-13T13:17:17.608Z,17.17
2018-12-13T13:20:20.989Z,16.93
2018-12-13T13:23:24.197Z,17.63
2018-12-13T13:26:27.497Z,17.13
2018-12-13T13:29:30.713Z,16.30
2018-12-13T13:32:33.957Z,17.97
2018-12-13T13:35:37.275Z,16.50
2018-12-13T13:38:40.582Z,17.37
2018-12-13T13:41:43.828Z,16.43
2018-12-13T13:44:47.469Z,17.93
2018-12-13T13:47:50.793Z,17.37
2018-12-13T13:50:54.051Z,17.03
2018-12-13T13:53:57.303Z,17.13
2018-12-13T13:57:00.568Z,16.23
2018-12-13T14:00:06.829Z,16.60
2018-12-13T14:03:10.054Z,15.67
2018-12-13T14:06:13.279Z,16.77
2018-12-13T14:09:16.522Z,16.80
2018-12-13T14:12:19.733Z,15.70
2018-12-13T14:15:23.004Z,15.70
2018-12-13T14:18:26.237Z,16.20
2018-12-13T14:21:29.483Z,15.77
2018-12-13T14:24:32.794Z,14.87
2018-12-13T14:27:36.077Z,14.73
2018-12-13T14:30:39.320Z,14.57
2018-12-13T14:33:42.586Z,15.70
2018-12-13T14:36:45.893Z,16.33
2018-12-13T14:39:49.130Z,16.23
2018-12-13T14:42:52.448Z,14.83
2018-12-13T14:45:55.668Z,14.23
2018-12-13T14:48:58.979Z,15.40
2018-12-13T14:52:02.193Z,16.77
2018-12-13T14:55:05.500Z,16.33
2018-12-13T14:58:08.752Z,15.17
2018-12-13T15:01:12.021Z,14.83
2018-12-13T15:04:15.254Z,15.87
2018-12-13T15:07:18.548Z,15.03
2018-12-13T15:10:21.856Z,15.43
2018-12-13T15:13:25.178Z,15.73
2018-12-13T15:16:28.415Z,15.53
2018-12-13T15:19:31.682Z,15.23
2018-12-13T15:22:35.042Z,15.87
2018-12-13T15:25:38.272Z,16.20
2018-12-13T15:28:41.532Z,16.17
2018-12-13T15:31:44.741Z,15.43
2018-12-13T15:34:48.023Z,14.87
2018-12-13T15:37:51.273Z,14.13
2018-12-13T15:40:54.516Z,14.83
2018-12-13T15:43:57.911Z,15.23
2018-12-13T15:47:01.162Z,15.17
2018-12-13T15:50:06.486Z,15.20
2018-12-13T15:53:09.750Z,15.40
2018-12-13T15:56:13.004Z,16.73
2018-12-13T15:59:16.233Z,14.93
2018-12-13T16:02:19.542Z,15.43
2018-12-13T16:05:22.768Z,14.73
2018-12-13T16:08:25.997Z,14.30
2018-12-13T16:11:29.217Z,17.47
2018-12-13T16:14:32.444Z,14.70
2018-12-13T16:17:35.668Z,15.47
2018-12-13T16:20:38.897Z,15.50
2018-12-13T16:23:42.216Z,14.13
2018-12-13T16:26:45.492Z,14.43
2018-12-13T16:29:48.941Z,14.90
2018-12-13T16:32:52.174Z,14.40
2018-12-13T16:35:55.432Z,14.30
2018-12-13T16:38:58.673Z,14.23
2018-12-13T16:42:01.934Z,15.13
2018-12-13T16:45:05.609Z,15.43
2018-12-13T16:48:08.929Z,13.50
2018-12-13T16:51:12.260Z,13.13
2018-12-13T16:54:15.534Z,16.03
2018-12-13T16:57:18.745Z,14.33
2018-12-13T17:00:22.004Z,15.27
2018-12-13T17:03:39.176Z,14.07
2018-12-13T17:06:42.597Z,14.87
2018-12-13T17:09:46.264Z,16.23
2018-12-13T17:12:49.484Z,16.40
2018-12-13T17:15:52.795Z,15.90
2018-12-13T17:18:56.099Z,15.80
2018-12-13T17:21:59.353Z,14.67
2018-12-13T17:25:02.589Z,15.30
2018-12-13T17:28:05.844Z,14.83
2018-12-13T17:31:09.074Z,15.93
2018-12-13T17:34:12.364Z,15.20
2018-12-13T17:37:15.918Z,13.80
2018-12-13T17:40:23.090Z,15.47
2018-12-13T17:43:24.504Z,13.60
2018-12-13T17:46:27.761Z,14.57
2018-12-13T17:49:31.019Z,14.57
2018-12-13T17:52:34.261Z,15.40
2018-12-13T17:55:37.508Z,15.23
2018-12-13T17:58:40.812Z,15.40
2018-12-13T18:01:44.044Z,13.10
2018-12-13T18:04:47.310Z,14.67
2018-12-13T18:07:50.697Z,15.13
2018-12-13T18:10:53.952Z,15.30
2018-12-13T18:13:57.485Z,14.57
2018-12-13T18:17:00.736Z,15.07
2018-12-13T18:20:05.105Z,15.60
2018-12-13T18:23:08.397Z,14.83
2018-12-13T18:26:11.796Z,15.63
2018-12-13T18:29:15.112Z,14.47
2018-12-13T18:32:18.500Z,15.13
2018-12-13T18:35:22.522Z,13.93
2018-12-13T18:38:25.804Z,14.97
2018-12-13T18:41:29.311Z,14.03
2018-12-13T18:44:33.324Z,14.87
2018-12-13T18:47:36.719Z,14.13
2018-12-13T18:50:40.542Z,13.40
2018-12-13T18:53:43.833Z,15.00
2018-12-13T18:56:47.139Z,13.77
2018-12-13T18:59:50.352Z,14.63
2018-12-13T19:02:53.672Z,14.83
2018-12-13T19:05:57.021Z,13.63
2018-12-13T19:09:00.312Z,13.93
2018-12-13T19:12:03.611Z,12.93
2018-12-13T19:15:07.227Z,13.30
2018-12-13T19:18:10.464Z,14.03
2018-12-13T19:21:14.338Z,14.30
2018-12-13T19:24:18.143Z,14.17
2018-12-13T19:27:21.465Z,14.27
2018-12-13T19:30:24.725Z,14.60
2018-12-13T19:33:28.443Z,14.57
2018-12-13T19:36:32.212Z,14.67
2018-12-13T19:39:35.550Z,13.73
2018-12-13T19:42:38.761Z,13.67
2018-12-13T19:45:42.130Z,14.60
2018-12-13T19:48:45.419Z,14.13
2018-12-13T19:51:48.740Z,13.53
2018-12-13T19:54:52.048Z,14.27
2018-12-13T19:57:55.425Z,14.63
2018-12-13T20:01:04.671Z,14.47
2018-12-13T20:04:07.971Z,14.07
2018-12-13T20:07:11.176Z,14.23
2018-12-13T20:10:14.488Z,14.37
2018-12-13T20:13:17.732Z,13.60
2018-12-13T20:16:21.392Z,14.33
2018-12-13T20:19:24.690Z,13.93
2018-12-13T20:22:27.954Z,14.07
2018-12-13T20:25:31.178Z,14.37
2018-12-13T20:28:34.438Z,13.80
2018-12-13T20:31:37.734Z,13.73
2018-12-13T20:34:41.969Z,14.17
2018-12-13T20:37:45.915Z,13.70
2018-12-13T20:40:49.868Z,14.27
2018-12-13T20:43:53.188Z,13.73
2018-12-13T20:46:57.103Z,13.80
2018-12-13T20:50:00.364Z,14.47
2018-12-13T20:53:03.695Z,14.03
2018-12-13T20:56:06.992Z,14.00
2018-12-13T20:59:10.483Z,13.10
2018-12-13T21:02:13.792Z,13.63
2018-12-13T21:05:17.021Z,12.97
2018-12-13T21:08:32.505Z,14.70
2018-12-13T21:11:38.046Z,13.47
2018-12-13T21:14:45.647Z,14.67
2018-12-13T21:17:49.708Z,13.37
2018-12-13T21:20:53.491Z,14.63
2018-12-13T21:24:14.050Z,14.20
2018-12-13T21:27:17.280Z,13.43
2018-12-13T21:30:20.525Z,13.03
2018-12-13T21:33:23.833Z,14.90
2018-12-13T21:36:27.065Z,14.40
2018-12-13T21:39:30.324Z,13.90
2018-12-13T21:42:33.540Z,14.43
2018-12-13T21:45:36.798Z,13.80
2018-12-13T21:48:41.038Z,14.13
2018-12-13T21:51:44.248Z,13.67
2018-12-13T21:54:47.496Z,14.33
2018-12-13T21:57:51.964Z,14.23
2018-12-13T22:00:55.452Z,15.30
2018-12-13T22:03:58.708Z,14.83
2018-12-13T22:07:02.049Z,14.83
2018-12-13T22:10:07.533Z,14.20
2018-12-13T22:13:11.922Z,14.30
2018-12-13T22:16:16.240Z,15.63
2018-12-13T22:19:19.602Z,15.27
2018-12-13T22:22:22.938Z,14.37
2018-12-13T22:25:26.232Z,14.83
2018-12-13T22:28:29.531Z,16.87
2018-12-13T22:31:32.764Z,15.10
2018-12-13T22:34:36.227Z,16.20
2018-12-13T22:37:39.736Z,15.97
2018-12-13T22:40:43.832Z,15.23
2018-12-13T22:43:47.090Z,14.80
2018-12-13T22:46:51.157Z,15.33
2018-12-13T22:49:54.379Z,16.43
2018-12-13T22:52:58.349Z,16.20
2018-12-13T22:56:01.673Z,16.43
2018-12-13T22:59:04.954Z,15.90
2018-12-13T23:02:08.344Z,16.53
2018-12-13T23:05:11.851Z,15.23
2018-12-13T23:08:15.466Z,16.60
2018-12-13T23:11:18.762Z,16.43
2018-12-13T23:14:22.556Z,16.27
2018-12-13T23:17:26.073Z,16.20
2018-12-13T23:20:29.863Z,17.33
2018-12-13T23:23:38.020Z,16.77
2018-12-13T23:26:41.291Z,17.70
2018-12-13T23:29:45.277Z,16.40
2018-12-13T23:32:48.540Z,16.97
2018-12-13T23:35:51.795Z,16.13
2018-12-13T23:38:55.081Z,16.83
2018-12-13T23:41:58.389Z,16.67
2018-12-13T23:45:02.301Z,16.07
2018-12-13T23:48:05.598Z,16.47
2018-12-13T23:51:09.597Z,14.87
2018-12-13T23:54:12.892Z,15.57
2018-12-13T23:57:16.420Z,15.93
